sensor_id;sensor_type;location;lat;lon;timestamp;P1;durP1;ratioP1;P2;durP2;ratioP2
3099;SDS011;1560;52.746;13.474;2022-11-21T00:00:57;26.62;;;13.83;;
3099;SDS011;1560;52.746;13.474;2022-11-21T00:03:27;30.80;;;14.70;;
3099;SDS011;1560;52.746;13.474;2022-11-21T00:05:56;22.37;;;13.85;;
3099;SDS011;1560;52.746;13.474;2022-11-21T00:08:25;24.67;;;12.93;;
3099;SDS011;1560;52.746;13.474;2022-11-21T00:10:54;27.73;;;13.40;;
3099;SDS011;1560;52.746;13.474;2022-11-21T00:13:26;27.42;;;13.03;;
3099;SDS011;1560;52.746;13.474;2022-11-21T00:15:55;20.57;;;13.10;;
3099;SDS011;1560;52.746;13.474;2022-11-21T00:18:25;23.52;;;13.53;;
3099;SDS011;1560;52.746;13.474;2022-11-21T00:20:54;21.23;;;13.03;;
3099;SDS011;1560;52.746;13.474;2022-11-21T00:26:02;21.80;;;12.82;;
3099;SDS011;1560;52.746;13.474;2022-11-21T00:28:32;20.48;;;13.55;;
3099;SDS011;1560;52.746;13.474;2022-11-21T00:31:02;23.70;;;13.32;;
3099;SDS011;1560;52.746;13.474;2022-11-21T00:36:09;24.50;;;13.48;;
3099;SDS011;1560;52.746;13.474;2022-11-21T00:38:38;25.08;;;13.03;;
3099;SDS011;1560;52.746;13.474;2022-11-21T00:41:07;22.35;;;12.65;;
3099;SDS011;1560;52.746;13.474;2022-11-21T00:43:35;22.73;;;11.50;;
3099;SDS011;1560;52.746;13.474;2022-11-21T00:46:04;16.97;;;11.05;;
3099;SDS011;1560;52.746;13.474;2022-11-21T00:51:09;21.07;;;12.73;;
3099;SDS011;1560;52.746;13.474;2022-11-21T00:53:38;24.82;;;11.83;;
3099;SDS011;1560;52.746;13.474;2022-11-21T00:56:08;21.70;;;12.78;;
3099;SDS011;1560;52.746;13.474;2022-11-21T01:01:14;20.95;;;12.10;;
3099;SDS011;1560;52.746;13.474;2022-11-21T01:03:43;24.02;;;13.18;;
3099;SDS011;1560;52.746;13.474;2022-11-21T01:06:12;25.88;;;13.15;;
3099;SDS011;1560;52.746;13.474;2022-11-21T01:11:19;22.77;;;13.70;;
3099;SDS011;1560;52.746;13.474;2022-11-21T01:13:48;20.25;;;11.75;;
3099;SDS011;1560;52.746;13.474;2022-11-21T01:16:20;21.95;;;12.88;;
3099;SDS011;1560;52.746;13.474;2022-11-21T01:18:51;18.67;;;12.18;;
3099;SDS011;1560;52.746;13.474;2022-11-21T01:23:58;25.23;;;13.28;;
3099;SDS011;1560;52.746;13.474;2022-11-21T01:26:36;24.47;;;12.78;;
3099;SDS011;1560;52.746;13.474;2022-11-21T01:29:05;24.40;;;13.32;;
3099;SDS011;1560;52.746;13.474;2022-11-21T01:31:42;23.00;;;12.03;;
3099;SDS011;1560;52.746;13.474;2022-11-21T01:36:47;26.02;;;13.72;;
3099;SDS011;1560;52.746;13.474;2022-11-21T01:39:16;19.73;;;11.85;;
3099;SDS011;1560;52.746;13.474;2022-11-21T01:41:54;23.57;;;13.75;;
3099;SDS011;1560;52.746;13.474;2022-11-21T01:46:59;20.10;;;12.58;;
3099;SDS011;1560;52.746;13.474;2022-11-21T01:49:28;23.35;;;12.73;;
3099;SDS011;1560;52.746;13.474;2022-11-21T01:51:59;28.73;;;15.00;;
3099;SDS011;1560;52.746;13.474;2022-11-21T01:54:39;29.00;;;16.52;;
3099;SDS011;1560;52.746;13.474;2022-11-21T01:57:11;25.05;;;14.07;;
3099;SDS011;1560;52.746;13.474;2022-11-21T01:59:42;27.75;;;14.75;;
3099;SDS011;1560;52.746;13.474;2022-11-21T02:02:14;27.48;;;15.30;;
3099;SDS011;1560;52.746;13.474;2022-11-21T02:07:22;25.45;;;15.95;;
3099;SDS011;1560;52.746;13.474;2022-11-21T02:09:53;26.57;;;13.48;;
3099;SDS011;1560;52.746;13.474;2022-11-21T02:15:00;26.73;;;15.23;;
3099;SDS011;1560;52.746;13.474;2022-11-21T02:17:30;25.65;;;15.83;;
3099;SDS011;1560;52.746;13.474;2022-11-21T02:20:00;28.67;;;15.75;;
3099;SDS011;1560;52.746;13.474;2022-11-21T02:25:10;31.33;;;16.60;;
3099;SDS011;1560;52.746;13.474;2022-11-21T02:27:41;30.00;;;17.52;;
3099;SDS011;1560;52.746;13.474;2022-11-21T02:30:18;26.73;;;15.00;;
3099;SDS011;1560;52.746;13.474;2022-11-21T02:32:48;27.85;;;16.25;;
3099;SDS011;1560;52.746;13.474;2022-11-21T02:37:56;28.95;;;17.12;;
3099;SDS011;1560;52.746;13.474;2022-11-21T02:40:26;34.43;;;17.62;;
3099;SDS011;1560;52.746;13.474;2022-11-21T02:42:58;35.45;;;16.93;;
3099;SDS011;1560;52.746;13.474;2022-11-21T02:48:06;27.42;;;16.10;;
3099;SDS011;1560;52.746;13.474;2022-11-21T02:50:36;28.47;;;15.13;;
3099;SDS011;1560;52.746;13.474;2022-11-21T02:53:07;25.50;;;14.60;;
3099;SDS011;1560;52.746;13.474;2022-11-21T02:55:37;29.85;;;16.15;;
3099;SDS011;1560;52.746;13.474;2022-11-21T03:00:43;26.30;;;15.35;;
3099;SDS011;1560;52.746;13.474;2022-11-21T03:05:48;25.52;;;14.53;;
3099;SDS011;1560;52.746;13.474;2022-11-21T03:08:17;28.17;;;16.42;;
3099;SDS011;1560;52.746;13.474;2022-11-21T03:10:46;26.52;;;16.20;;
3099;SDS011;1560;52.746;13.474;2022-11-21T03:13:15;30.62;;;17.27;;
3099;SDS011;1560;52.746;13.474;2022-11-21T03:18:20;29.25;;;14.68;;
3099;SDS011;1560;52.746;13.474;2022-11-21T03:20:49;28.38;;;15.50;;
3099;SDS011;1560;52.746;13.474;2022-11-21T03:25:54;32.25;;;17.77;;
3099;SDS011;1560;52.746;13.474;2022-11-21T03:28:25;27.82;;;15.18;;
3099;SDS011;1560;52.746;13.474;2022-11-21T03:30:54;27.15;;;15.03;;
3099;SDS011;1560;52.746;13.474;2022-11-21T03:33:23;27.70;;;15.68;;
3099;SDS011;1560;52.746;13.474;2022-11-21T03:38:28;33.05;;;16.42;;
3099;SDS011;1560;52.746;13.474;2022-11-21T03:40:57;32.25;;;15.63;;
3099;SDS011;1560;52.746;13.474;2022-11-21T03:43:38;32.30;;;20.20;;
3099;SDS011;1560;52.746;13.474;2022-11-21T03:46:07;40.95;;;24.35;;
3099;SDS011;1560;52.746;13.474;2022-11-21T03:51:12;42.35;;;23.05;;
3099;SDS011;1560;52.746;13.474;2022-11-21T03:53:41;38.95;;;21.73;;
3099;SDS011;1560;52.746;13.474;2022-11-21T03:56:10;39.67;;;22.95;;
3099;SDS011;1560;52.746;13.474;2022-11-21T03:58:39;43.98;;;25.70;;
3099;SDS011;1560;52.746;13.474;2022-11-21T04:01:08;34.95;;;20.25;;
3099;SDS011;1560;52.746;13.474;2022-11-21T04:03:39;34.38;;;18.90;;
3099;SDS011;1560;52.746;13.474;2022-11-21T04:08:44;34.08;;;17.98;;
3099;SDS011;1560;52.746;13.474;2022-11-21T04:11:13;28.90;;;17.82;;
3099;SDS011;1560;52.746;13.474;2022-11-21T04:13:43;28.85;;;17.87;;
3099;SDS011;1560;52.746;13.474;2022-11-21T04:16:11;33.53;;;18.85;;
3099;SDS011;1560;52.746;13.474;2022-11-21T04:21:17;31.97;;;19.00;;
3099;SDS011;1560;52.746;13.474;2022-11-21T04:23:46;35.98;;;19.05;;
3099;SDS011;1560;52.746;13.474;2022-11-21T04:28:51;30.32;;;18.32;;
3099;SDS011;1560;52.746;13.474;2022-11-21T04:31:20;37.10;;;17.50;;
3099;SDS011;1560;52.746;13.474;2022-11-21T04:36:25;27.35;;;15.70;;
3099;SDS011;1560;52.746;13.474;2022-11-21T04:38:54;28.32;;;16.40;;
3099;SDS011;1560;52.746;13.474;2022-11-21T04:41:23;28.02;;;16.55;;
3099;SDS011;1560;52.746;13.474;2022-11-21T04:43:52;30.90;;;18.90;;
3099;SDS011;1560;52.746;13.474;2022-11-21T04:46:20;45.78;;;22.93;;
3099;SDS011;1560;52.746;13.474;2022-11-21T04:48:49;38.23;;;20.32;;
3099;SDS011;1560;52.746;13.474;2022-11-21T04:53:55;38.00;;;20.30;;
3099;SDS011;1560;52.746;13.474;2022-11-21T04:59:00;69.27;;;30.12;;
3099;SDS011;1560;52.746;13.474;2022-11-21T05:01:29;62.70;;;30.80;;
3099;SDS011;1560;52.746;13.474;2022-11-21T05:04:06;69.10;;;33.02;;
3099;SDS011;1560;52.746;13.474;2022-11-21T05:06:35;59.48;;;30.97;;
3099;SDS011;1560;52.746;13.474;2022-11-21T05:11:40;46.05;;;23.62;;
3099;SDS011;1560;52.746;13.474;2022-11-21T05:17:03;36.93;;;18.55;;
3099;SDS011;1560;52.746;13.474;2022-11-21T05:19:32;37.65;;;18.05;;
3099;SDS011;1560;52.746;13.474;2022-11-21T05:22:01;34.27;;;18.42;;
3099;SDS011;1560;52.746;13.474;2022-11-21T05:24:30;35.33;;;17.55;;
3099;SDS011;1560;52.746;13.474;2022-11-21T05:26:59;29.80;;;15.48;;
3099;SDS011;1560;52.746;13.474;2022-11-21T05:32:04;31.15;;;16.93;;
3099;SDS011;1560;52.746;13.474;2022-11-21T05:34:42;30.97;;;15.83;;
3099;SDS011;1560;52.746;13.474;2022-11-21T05:37:11;31.15;;;15.35;;
3099;SDS011;1560;52.746;13.474;2022-11-21T05:39:40;36.15;;;19.48;;
3099;SDS011;1560;52.746;13.474;2022-11-21T05:44:45;39.75;;;21.20;;
3099;SDS011;1560;52.746;13.474;2022-11-21T05:47:14;44.98;;;23.95;;
3099;SDS011;1560;52.746;13.474;2022-11-21T05:49:43;40.90;;;24.52;;
3099;SDS011;1560;52.746;13.474;2022-11-21T05:52:12;52.10;;;25.65;;
3099;SDS011;1560;52.746;13.474;2022-11-21T05:54:41;52.23;;;30.37;;
3099;SDS011;1560;52.746;13.474;2022-11-21T05:57:09;52.08;;;25.15;;
3099;SDS011;1560;52.746;13.474;2022-11-21T05:59:38;40.33;;;24.32;;
3099;SDS011;1560;52.746;13.474;2022-11-21T06:02:07;42.78;;;22.80;;
3099;SDS011;1560;52.746;13.474;2022-11-21T06:07:31;33.25;;;19.75;;
3099;SDS011;1560;52.746;13.474;2022-11-21T06:09:59;31.40;;;18.40;;
3099;SDS011;1560;52.746;13.474;2022-11-21T06:15:12;37.70;;;19.55;;
3099;SDS011;1560;52.746;13.474;2022-11-21T06:17:40;31.30;;;17.35;;
3099;SDS011;1560;52.746;13.474;2022-11-21T06:30:48;37.33;;;20.15;;
3099;SDS011;1560;52.746;13.474;2022-11-21T06:35:53;46.02;;;27.77;;
3099;SDS011;1560;52.746;13.474;2022-11-21T06:38:22;217.97;;;84.20;;
3099;SDS011;1560;52.746;13.474;2022-11-21T06:40:51;109.32;;;45.08;;
3099;SDS011;1560;52.746;13.474;2022-11-21T06:43:20;85.10;;;35.35;;
3099;SDS011;1560;52.746;13.474;2022-11-21T06:48:25;89.10;;;36.20;;
3099;SDS011;1560;52.746;13.474;2022-11-21T06:50:55;43.40;;;24.45;;
3099;SDS011;1560;52.746;13.474;2022-11-21T06:56:01;51.90;;;27.90;;
3099;SDS011;1560;52.746;13.474;2022-11-21T06:58:32;38.20;;;22.15;;
3099;SDS011;1560;52.746;13.474;2022-11-21T07:01:03;32.10;;;18.37;;
3099;SDS011;1560;52.746;13.474;2022-11-21T07:06:08;38.40;;;19.82;;
3099;SDS011;1560;52.746;13.474;2022-11-21T07:08:38;34.35;;;19.80;;
3099;SDS011;1560;52.746;13.474;2022-11-21T07:11:07;31.93;;;19.65;;
3099;SDS011;1560;52.746;13.474;2022-11-21T07:13:38;33.38;;;18.75;;
3099;SDS011;1560;52.746;13.474;2022-11-21T07:16:25;45.00;;;22.95;;
3099;SDS011;1560;52.746;13.474;2022-11-21T07:18:57;39.58;;;20.97;;
3099;SDS011;1560;52.746;13.474;2022-11-21T07:21:28;38.55;;;20.15;;
3099;SDS011;1560;52.746;13.474;2022-11-21T07:26:58;31.12;;;16.67;;
3099;SDS011;1560;52.746;13.474;2022-11-21T07:29:29;35.55;;;16.95;;
3099;SDS011;1560;52.746;13.474;2022-11-21T07:34:38;36.83;;;19.75;;
3099;SDS011;1560;52.746;13.474;2022-11-21T07:37:07;39.10;;;19.73;;
3099;SDS011;1560;52.746;13.474;2022-11-21T07:44:47;31.68;;;16.95;;
3099;SDS011;1560;52.746;13.474;2022-11-21T07:49:52;44.88;;;20.77;;
3099;SDS011;1560;52.746;13.474;2022-11-21T07:52:21;37.60;;;17.00;;
3099;SDS011;1560;52.746;13.474;2022-11-21T07:54:51;239.57;;;183.18;;
3099;SDS011;1560;52.746;13.474;2022-11-21T07:57:20;251.27;;;148.57;;
3099;SDS011;1560;52.746;13.474;2022-11-21T07:59:48;218.75;;;100.05;;
3099;SDS011;1560;52.746;13.474;2022-11-21T08:04:54;109.03;;;59.05;;
3099;SDS011;1560;52.746;13.474;2022-11-21T08:07:23;80.50;;;47.17;;
3099;SDS011;1560;52.746;13.474;2022-11-21T08:10:01;65.47;;;35.35;;
3099;SDS011;1560;52.746;13.474;2022-11-21T08:15:08;51.08;;;28.30;;
3099;SDS011;1560;52.746;13.474;2022-11-21T08:17:38;46.00;;;19.65;;
3099;SDS011;1560;52.746;13.474;2022-11-21T08:20:07;36.33;;;17.40;;
3099;SDS011;1560;52.746;13.474;2022-11-21T08:25:14;39.08;;;20.15;;
3099;SDS011;1560;52.746;13.474;2022-11-21T08:27:43;32.93;;;17.62;;
3099;SDS011;1560;52.746;13.474;2022-11-21T08:30:13;45.85;;;21.95;;
3099;SDS011;1560;52.746;13.474;2022-11-21T08:32:42;41.00;;;18.23;;
3099;SDS011;1560;52.746;13.474;2022-11-21T08:35:10;40.73;;;20.32;;
3099;SDS011;1560;52.746;13.474;2022-11-21T08:37:39;33.20;;;16.48;;
3099;SDS011;1560;52.746;13.474;2022-11-21T08:40:09;37.98;;;17.27;;
3099;SDS011;1560;52.746;13.474;2022-11-21T08:45:14;38.40;;;16.27;;
3099;SDS011;1560;52.746;13.474;2022-11-21T08:47:44;36.15;;;16.45;;
3099;SDS011;1560;52.746;13.474;2022-11-21T08:50:13;38.78;;;15.88;;
3099;SDS011;1560;52.746;13.474;2022-11-21T08:52:42;30.12;;;14.68;;
3099;SDS011;1560;52.746;13.474;2022-11-21T08:55:12;34.15;;;16.35;;
3099;SDS011;1560;52.746;13.474;2022-11-21T08:57:41;33.42;;;16.60;;
3099;SDS011;1560;52.746;13.474;2022-11-21T09:00:11;27.85;;;14.80;;
3099;SDS011;1560;52.746;13.474;2022-11-21T09:02:41;32.23;;;15.53;;
3099;SDS011;1560;52.746;13.474;2022-11-21T09:07:46;28.45;;;13.88;;
3099;SDS011;1560;52.746;13.474;2022-11-21T09:10:17;30.80;;;13.90;;
3099;SDS011;1560;52.746;13.474;2022-11-21T09:12:46;30.95;;;14.28;;
3099;SDS011;1560;52.746;13.474;2022-11-21T09:15:15;30.65;;;13.75;;
3099;SDS011;1560;52.746;13.474;2022-11-21T09:18:01;27.37;;;13.20;;
3099;SDS011;1560;52.746;13.474;2022-11-21T09:20:40;28.60;;;12.45;;
3099;SDS011;1560;52.746;13.474;2022-11-21T09:23:10;34.08;;;13.72;;
3099;SDS011;1560;52.746;13.474;2022-11-21T09:25:41;40.45;;;15.25;;
3099;SDS011;1560;52.746;13.474;2022-11-21T09:28:11;33.75;;;14.28;;
3099;SDS011;1560;52.746;13.474;2022-11-21T09:30:41;28.85;;;13.28;;
3099;SDS011;1560;52.746;13.474;2022-11-21T09:35:46;24.67;;;13.65;;
3099;SDS011;1560;52.746;13.474;2022-11-21T09:38:15;28.40;;;13.55;;
3099;SDS011;1560;52.746;13.474;2022-11-21T09:40:44;31.73;;;14.47;;
3099;SDS011;1560;52.746;13.474;2022-11-21T09:45:55;36.95;;;15.85;;
3099;SDS011;1560;52.746;13.474;2022-11-21T09:48:26;30.32;;;14.00;;
3099;SDS011;1560;52.746;13.474;2022-11-21T09:50:58;28.73;;;13.75;;
3099;SDS011;1560;52.746;13.474;2022-11-21T09:53:31;33.25;;;15.83;;
3099;SDS011;1560;52.746;13.474;2022-11-21T09:58:41;30.17;;;12.85;;
3099;SDS011;1560;52.746;13.474;2022-11-21T10:01:12;32.08;;;14.03;;
3099;SDS011;1560;52.746;13.474;2022-11-21T10:03:42;29.42;;;13.65;;
3099;SDS011;1560;52.746;13.474;2022-11-21T10:06:16;28.00;;;13.50;;
3099;SDS011;1560;52.746;13.474;2022-11-21T10:08:56;28.17;;;12.88;;
3099;SDS011;1560;52.746;13.474;2022-11-21T10:11:30;27.20;;;13.43;;
3099;SDS011;1560;52.746;13.474;2022-11-21T10:16:43;33.25;;;15.70;;
3099;SDS011;1560;52.746;13.474;2022-11-21T10:19:17;30.92;;;13.85;;
3099;SDS011;1560;52.746;13.474;2022-11-21T10:24:56;31.20;;;14.43;;
3099;SDS011;1560;52.746;13.474;2022-11-21T10:27:30;31.35;;;14.78;;
3099;SDS011;1560;52.746;13.474;2022-11-21T10:30:03;29.10;;;12.82;;
3099;SDS011;1560;52.746;13.474;2022-11-21T10:32:35;30.75;;;13.65;;
3099;SDS011;1560;52.746;13.474;2022-11-21T10:35:12;32.88;;;14.98;;
3099;SDS011;1560;52.746;13.474;2022-11-21T10:40:27;30.02;;;12.18;;
3099;SDS011;1560;52.746;13.474;2022-11-21T10:43:03;30.10;;;13.32;;
3099;SDS011;1560;52.746;13.474;2022-11-21T10:45:41;33.80;;;14.38;;
3099;SDS011;1560;52.746;13.474;2022-11-21T10:48:10;28.75;;;14.18;;
3099;SDS011;1560;52.746;13.474;2022-11-21T10:50:55;32.75;;;14.15;;
3099;SDS011;1560;52.746;13.474;2022-11-21T10:56:06;33.73;;;15.40;;
3099;SDS011;1560;52.746;13.474;2022-11-21T10:58:41;33.65;;;16.05;;
3099;SDS011;1560;52.746;13.474;2022-11-21T11:01:18;31.62;;;13.70;;
3099;SDS011;1560;52.746;13.474;2022-11-21T11:04:04;28.95;;;13.68;;
3099;SDS011;1560;52.746;13.474;2022-11-21T11:06:52;31.23;;;13.45;;
3099;SDS011;1560;52.746;13.474;2022-11-21T11:09:24;32.13;;;14.90;;
3099;SDS011;1560;52.746;13.474;2022-11-21T11:15:04;36.88;;;16.12;;
3099;SDS011;1560;52.746;13.474;2022-11-21T11:17:39;32.03;;;12.65;;
3099;SDS011;1560;52.746;13.474;2022-11-21T11:20:29;35.17;;;16.90;;
3099;SDS011;1560;52.746;13.474;2022-11-21T11:22:56;27.80;;;13.90;;
3099;SDS011;1560;52.746;13.474;2022-11-21T11:28:02;31.33;;;14.90;;
3099;SDS011;1560;52.746;13.474;2022-11-21T11:30:41;28.80;;;15.08;;
3099;SDS011;1560;52.746;13.474;2022-11-21T11:33:26;35.43;;;14.28;;
3099;SDS011;1560;52.746;13.474;2022-11-21T11:36:12;29.50;;;13.70;;
3099;SDS011;1560;52.746;13.474;2022-11-21T11:38:44;30.30;;;16.02;;
3099;SDS011;1560;52.746;13.474;2022-11-21T11:41:23;27.60;;;14.50;;
3099;SDS011;1560;52.746;13.474;2022-11-21T11:43:56;28.87;;;15.30;;
3099;SDS011;1560;52.746;13.474;2022-11-21T11:46:46;28.25;;;13.10;;
3099;SDS011;1560;52.746;13.474;2022-11-21T11:49:26;32.13;;;14.83;;
3099;SDS011;1560;52.746;13.474;2022-11-21T11:52:06;34.88;;;16.30;;
3099;SDS011;1560;52.746;13.474;2022-11-21T11:54:44;27.27;;;14.20;;
3099;SDS011;1560;52.746;13.474;2022-11-21T11:57:10;27.00;;;13.22;;
3099;SDS011;1560;52.746;13.474;2022-11-21T11:59:49;28.30;;;14.80;;
3099;SDS011;1560;52.746;13.474;2022-11-21T12:02:20;29.20;;;13.62;;
3099;SDS011;1560;52.746;13.474;2022-11-21T12:04:53;35.65;;;15.50;;
3099;SDS011;1560;52.746;13.474;2022-11-21T12:07:25;32.15;;;16.42;;
3099;SDS011;1560;52.746;13.474;2022-11-21T12:10:05;29.40;;;15.03;;
3099;SDS011;1560;52.746;13.474;2022-11-21T12:12:39;33.35;;;16.35;;
3099;SDS011;1560;52.746;13.474;2022-11-21T12:15:11;29.37;;;14.70;;
3099;SDS011;1560;52.746;13.474;2022-11-21T12:18:06;32.53;;;15.23;;
3099;SDS011;1560;52.746;13.474;2022-11-21T12:20:47;30.57;;;14.50;;
3099;SDS011;1560;52.746;13.474;2022-11-21T12:25:58;31.62;;;14.35;;
3099;SDS011;1560;52.746;13.474;2022-11-21T12:28:34;28.75;;;13.13;;
3099;SDS011;1560;52.746;13.474;2022-11-21T12:31:13;28.27;;;13.10;;
3099;SDS011;1560;52.746;13.474;2022-11-21T12:33:47;25.30;;;13.70;;
3099;SDS011;1560;52.746;13.474;2022-11-21T12:39:03;28.05;;;13.48;;
3099;SDS011;1560;52.746;13.474;2022-11-21T12:41:44;28.52;;;13.50;;
3099;SDS011;1560;52.746;13.474;2022-11-21T12:44:47;24.95;;;12.60;;
3099;SDS011;1560;52.746;13.474;2022-11-21T12:47:25;29.07;;;11.75;;
3099;SDS011;1560;52.746;13.474;2022-11-21T12:50:01;27.25;;;12.55;;
3099;SDS011;1560;52.746;13.474;2022-11-21T12:52:52;27.95;;;14.35;;
3099;SDS011;1560;52.746;13.474;2022-11-21T12:58:37;24.12;;;13.15;;
3099;SDS011;1560;52.746;13.474;2022-11-21T13:01:14;27.60;;;13.70;;
3099;SDS011;1560;52.746;13.474;2022-11-21T13:03:50;25.85;;;12.47;;
3099;SDS011;1560;52.746;13.474;2022-11-21T13:06:24;29.25;;;11.88;;
3099;SDS011;1560;52.746;13.474;2022-11-21T13:08:55;25.75;;;12.28;;
3099;SDS011;1560;52.746;13.474;2022-11-21T13:14:08;29.20;;;13.10;;
3099;SDS011;1560;52.746;13.474;2022-11-21T13:16:38;21.97;;;11.10;;
3099;SDS011;1560;52.746;13.474;2022-11-21T13:19:16;28.23;;;11.97;;
3099;SDS011;1560;52.746;13.474;2022-11-21T13:21:49;27.65;;;14.93;;
3099;SDS011;1560;52.746;13.474;2022-11-21T13:27:25;23.05;;;12.05;;
3099;SDS011;1560;52.746;13.474;2022-11-21T13:32:58;24.20;;;12.73;;
3099;SDS011;1560;52.746;13.474;2022-11-21T13:38:32;24.30;;;12.40;;
3099;SDS011;1560;52.746;13.474;2022-11-21T13:44:58;23.92;;;12.88;;
3099;SDS011;1560;52.746;13.474;2022-11-21T13:50:59;24.52;;;11.55;;
3099;SDS011;1560;52.746;13.474;2022-11-21T13:53:43;21.48;;;11.80;;
3099;SDS011;1560;52.746;13.474;2022-11-21T13:59:03;21.10;;;11.35;;
3099;SDS011;1560;52.746;13.474;2022-11-21T14:01:53;23.98;;;10.93;;
3099;SDS011;1560;52.746;13.474;2022-11-21T14:04:56;26.15;;;11.25;;
3099;SDS011;1560;52.746;13.474;2022-11-21T14:10:16;22.32;;;10.85;;
3099;SDS011;1560;52.746;13.474;2022-11-21T14:12:48;21.00;;;9.80;;
3099;SDS011;1560;52.746;13.474;2022-11-21T14:15:21;20.27;;;11.10;;
3099;SDS011;1560;52.746;13.474;2022-11-21T14:17:53;22.35;;;10.93;;
3099;SDS011;1560;52.746;13.474;2022-11-21T14:20:24;24.02;;;12.05;;
3099;SDS011;1560;52.746;13.474;2022-11-21T14:23:00;18.35;;;9.10;;
3099;SDS011;1560;52.746;13.474;2022-11-21T14:49:47;23.65;;;10.60;;
3099;SDS011;1560;52.746;13.474;2022-11-21T14:52:18;24.27;;;10.75;;
3099;SDS011;1560;52.746;13.474;2022-11-21T14:54:52;27.27;;;12.00;;
3099;SDS011;1560;52.746;13.474;2022-11-21T14:59:59;21.20;;;10.88;;
3099;SDS011;1560;52.746;13.474;2022-11-21T15:02:28;22.90;;;12.13;;
3099;SDS011;1560;52.746;13.474;2022-11-21T15:05:00;29.95;;;15.55;;
3099;SDS011;1560;52.746;13.474;2022-11-21T15:10:20;22.20;;;11.18;;
3099;SDS011;1560;52.746;13.474;2022-11-21T15:12:52;25.70;;;11.95;;
3099;SDS011;1560;52.746;13.474;2022-11-21T15:15:26;24.52;;;11.97;;
3099;SDS011;1560;52.746;13.474;2022-11-21T15:17:58;25.77;;;12.20;;
3099;SDS011;1560;52.746;13.474;2022-11-21T15:20:36;24.47;;;12.58;;
3099;SDS011;1560;52.746;13.474;2022-11-21T15:23:05;24.00;;;12.70;;
3099;SDS011;1560;52.746;13.474;2022-11-21T15:25:47;49.33;;;21.00;;
3099;SDS011;1560;52.746;13.474;2022-11-21T15:28:17;28.77;;;13.83;;
3099;SDS011;1560;52.746;13.474;2022-11-21T15:30:46;23.10;;;12.53;;
3099;SDS011;1560;52.746;13.474;2022-11-21T15:35:52;28.77;;;14.00;;
3099;SDS011;1560;52.746;13.474;2022-11-21T15:41:04;28.90;;;15.45;;
3099;SDS011;1560;52.746;13.474;2022-11-21T15:43:41;19.90;;;12.93;;
3099;SDS011;1560;52.746;13.474;2022-11-21T15:46:14;23.80;;;13.43;;
3099;SDS011;1560;52.746;13.474;2022-11-21T15:48:46;26.77;;;14.05;;
3099;SDS011;1560;52.746;13.474;2022-11-21T15:51:16;30.02;;;16.65;;
3099;SDS011;1560;52.746;13.474;2022-11-21T15:53:46;29.05;;;16.42;;
3099;SDS011;1560;52.746;13.474;2022-11-21T15:56:16;30.45;;;14.85;;
3099;SDS011;1560;52.746;13.474;2022-11-21T15:58:46;30.20;;;16.57;;
3099;SDS011;1560;52.746;13.474;2022-11-21T16:03:52;34.55;;;19.35;;
3099;SDS011;1560;52.746;13.474;2022-11-21T16:08:59;32.20;;;18.60;;
3099;SDS011;1560;52.746;13.474;2022-11-21T16:11:29;32.03;;;17.37;;
3099;SDS011;1560;52.746;13.474;2022-11-21T16:14:11;39.33;;;19.37;;
3099;SDS011;1560;52.746;13.474;2022-11-21T16:16:40;39.38;;;20.72;;
3099;SDS011;1560;52.746;13.474;2022-11-21T16:19:10;40.75;;;21.80;;
3099;SDS011;1560;52.746;13.474;2022-11-21T16:21:40;40.85;;;20.20;;
3099;SDS011;1560;52.746;13.474;2022-11-21T16:26:46;40.25;;;19.98;;
3099;SDS011;1560;52.746;13.474;2022-11-21T16:29:17;35.68;;;20.62;;
3099;SDS011;1560;52.746;13.474;2022-11-21T16:31:45;41.20;;;19.92;;
3099;SDS011;1560;52.746;13.474;2022-11-21T16:34:17;40.45;;;20.68;;
3099;SDS011;1560;52.746;13.474;2022-11-21T16:36:46;42.50;;;22.52;;
3099;SDS011;1560;52.746;13.474;2022-11-21T16:41:51;33.02;;;18.23;;
3099;SDS011;1560;52.746;13.474;2022-11-21T16:46:56;34.50;;;18.12;;
3099;SDS011;1560;52.746;13.474;2022-11-21T16:49:25;32.42;;;18.85;;
3099;SDS011;1560;52.746;13.474;2022-11-21T16:52:02;35.85;;;19.23;;
3099;SDS011;1560;52.746;13.474;2022-11-21T16:57:08;31.00;;;17.90;;
3099;SDS011;1560;52.746;13.474;2022-11-21T16:59:36;37.63;;;19.40;;
3099;SDS011;1560;52.746;13.474;2022-11-21T17:02:14;34.65;;;19.35;;
3099;SDS011;1560;52.746;13.474;2022-11-21T17:04:43;35.55;;;19.05;;
3099;SDS011;1560;52.746;13.474;2022-11-21T17:07:12;43.90;;;19.35;;
3099;SDS011;1560;52.746;13.474;2022-11-21T17:09:40;35.50;;;19.10;;
3099;SDS011;1560;52.746;13.474;2022-11-21T17:12:09;32.50;;;18.77;;
3099;SDS011;1560;52.746;13.474;2022-11-21T17:17:15;35.75;;;19.17;;
3099;SDS011;1560;52.746;13.474;2022-11-21T17:19:44;40.17;;;21.30;;
3099;SDS011;1560;52.746;13.474;2022-11-21T17:22:13;35.03;;;18.27;;
3099;SDS011;1560;52.746;13.474;2022-11-21T17:24:42;32.55;;;17.82;;
3099;SDS011;1560;52.746;13.474;2022-11-21T17:27:11;41.92;;;19.05;;
3099;SDS011;1560;52.746;13.474;2022-11-21T17:32:16;35.65;;;20.95;;
3099;SDS011;1560;52.746;13.474;2022-11-21T17:34:48;43.42;;;20.23;;
3099;SDS011;1560;52.746;13.474;2022-11-21T17:39:53;30.20;;;17.23;;
3099;SDS011;1560;52.746;13.474;2022-11-21T17:42:22;35.45;;;18.87;;
3099;SDS011;1560;52.746;13.474;2022-11-21T17:44:59;37.17;;;18.82;;
3099;SDS011;1560;52.746;13.474;2022-11-21T17:47:28;37.20;;;19.02;;
3099;SDS011;1560;52.746;13.474;2022-11-21T17:50:00;37.35;;;18.98;;
3099;SDS011;1560;52.746;13.474;2022-11-21T17:55:05;35.40;;;18.15;;
3099;SDS011;1560;52.746;13.474;2022-11-21T17:57:34;38.95;;;19.05;;
3099;SDS011;1560;52.746;13.474;2022-11-21T18:00:13;33.53;;;18.02;;
3099;SDS011;1560;52.746;13.474;2022-11-21T18:05:25;31.30;;;18.25;;
3099;SDS011;1560;52.746;13.474;2022-11-21T18:07:56;38.60;;;18.35;;
3099;SDS011;1560;52.746;13.474;2022-11-21T18:10:26;28.50;;;15.78;;
3099;SDS011;1560;52.746;13.474;2022-11-21T18:13:01;34.83;;;18.10;;
3099;SDS011;1560;52.746;13.474;2022-11-21T18:18:12;35.98;;;17.70;;
3099;SDS011;1560;52.746;13.474;2022-11-21T18:20:49;32.03;;;17.70;;
3099;SDS011;1560;52.746;13.474;2022-11-21T19:02:35;40.20;;;18.30;;
3099;SDS011;1560;52.746;13.474;2022-11-21T19:05:19;35.23;;;17.15;;
3099;SDS011;1560;52.746;13.474;2022-11-21T19:07:57;32.78;;;17.82;;
3099;SDS011;1560;52.746;13.474;2022-11-21T19:13:41;34.83;;;17.10;;
3099;SDS011;1560;52.746;13.474;2022-11-21T19:16:11;32.58;;;17.05;;
3099;SDS011;1560;52.746;13.474;2022-11-21T19:18:49;34.73;;;17.12;;
3099;SDS011;1560;52.746;13.474;2022-11-21T19:21:19;37.55;;;17.12;;
3099;SDS011;1560;52.746;13.474;2022-11-21T19:23:48;35.45;;;17.90;;
3099;SDS011;1560;52.746;13.474;2022-11-21T19:28:53;30.60;;;16.62;;
3099;SDS011;1560;52.746;13.474;2022-11-21T19:31:22;41.20;;;20.05;;
3099;SDS011;1560;52.746;13.474;2022-11-21T19:33:51;34.30;;;16.85;;
3099;SDS011;1560;52.746;13.474;2022-11-21T19:38:56;34.33;;;17.45;;
3099;SDS011;1560;52.746;13.474;2022-11-21T19:41:25;31.60;;;16.85;;
3099;SDS011;1560;52.746;13.474;2022-11-21T19:44:03;44.05;;;21.02;;
3099;SDS011;1560;52.746;13.474;2022-11-21T19:46:33;33.92;;;16.95;;
3099;SDS011;1560;52.746;13.474;2022-11-21T19:49:03;39.83;;;18.40;;
3099;SDS011;1560;52.746;13.474;2022-11-21T19:54:10;38.85;;;17.70;;
3099;SDS011;1560;52.746;13.474;2022-11-21T19:56:41;39.33;;;19.57;;
3099;SDS011;1560;52.746;13.474;2022-11-21T19:59:10;41.77;;;17.92;;
3099;SDS011;1560;52.746;13.474;2022-11-21T20:01:40;165.03;;;62.65;;
3099;SDS011;1560;52.746;13.474;2022-11-21T20:04:09;34.65;;;18.50;;